createdAt,value
2018-12-23T00:00:43.839Z,94.93
2018-12-23T00:01:41.976Z,96.08
2018-12-23T00:02:41.930Z,96.36
2018-12-23T00:03:41.872Z,97.31
2018-12-23T00:04:41.856Z,95.98
2018-12-23T00:05:41.762Z,98.16
2018-12-23T00:06:41.706Z,97.78
2018-12-23T00:07:41.649Z,96.64
2018-12-23T00:08:41.591Z,98.54
2018-12-23T00:09:41.578Z,96.36
2018-12-23T00:10:41.479Z,96.36
2018-12-23T00:11:41.423Z,96.45
2018-12-23T00:12:41.374Z,97.02
2018-12-23T00:13:41.314Z,96.36
2018-12-23T00:14:41.300Z,94.93
2018-12-23T00:15:41.203Z,96.17
2018-12-23T00:16:41.147Z,95.70
2018-12-23T00:17:41.097Z,95.31
2018-12-23T00:18:41.036Z,95.89
2018-12-23T00:19:41.024Z,94.84
2018-12-23T00:20:40.930Z,96.17
2018-12-23T00:21:40.873Z,95.51
2018-12-23T00:22:40.819Z,95.79
2018-12-23T00:23:40.762Z,94.93
2018-12-23T00:24:40.736Z,95.22
2018-12-23T00:25:40.959Z,93.89
2018-12-23T00:26:40.596Z,94.93
2018-12-23T00:27:40.665Z,94.46
2018-12-23T00:28:40.616Z,94.46
2018-12-23T00:29:40.490Z,94.84
2018-12-23T00:30:40.543Z,93.99
2018-12-23T00:31:40.339Z,93.51
2018-12-23T00:32:40.552Z,94.56
2018-12-23T00:33:40.250Z,93.89
2018-12-23T00:34:40.251Z,95.41
2018-12-23T00:35:40.161Z,93.99
2018-12-23T00:36:40.049Z,94.65
2018-12-23T00:37:40.023Z,94.46
2018-12-23T00:38:39.929Z,93.99
2018-12-23T00:39:39.874Z,93.70
2018-12-23T00:40:39.836Z,93.99
2018-12-23T00:41:39.853Z,95.03
2018-12-23T00:42:39.708Z,93.60
2018-12-23T00:43:39.654Z,94.08
2018-12-23T00:44:39.601Z,94.08
2018-12-23T00:45:39.546Z,93.04
2018-12-23T00:46:39.528Z,93.51
2018-12-23T00:47:39.434Z,93.23
2018-12-23T00:48:39.376Z,93.04
2018-12-23T00:49:39.320Z,93.23
2018-12-23T00:50:39.266Z,93.04
2018-12-23T00:51:39.234Z,91.42
2018-12-23T00:52:39.155Z,92.18
2018-12-23T00:53:39.129Z,91.24
2018-12-23T00:54:39.083Z,91.42
2018-12-23T00:55:38.989Z,90.95
2018-12-23T00:56:38.938Z,91.04
2018-12-23T00:57:38.877Z,91.42
2018-12-23T00:58:38.824Z,91.61
2018-12-23T00:59:38.839Z,91.42
2018-12-23T01:00:38.710Z,91.52
2018-12-23T01:01:38.656Z,91.52
2018-12-23T01:02:38.605Z,91.61
2018-12-23T01:03:38.544Z,91.89
2018-12-23T01:04:38.524Z,91.04
2018-12-23T01:05:38.433Z,91.42
2018-12-23T01:06:38.380Z,91.24
2018-12-23T01:07:38.354Z,91.42
2018-12-23T01:08:38.271Z,90.00
2018-12-23T01:09:38.215Z,91.14
2018-12-23T01:10:38.198Z,90.00
2018-12-23T01:11:38.100Z,89.62
2018-12-23T01:12:38.046Z,89.05
2018-12-23T01:13:37.992Z,90.09
2018-12-23T01:14:37.960Z,88.48
2018-12-23T01:15:37.918Z,89.62
2018-12-23T01:16:37.828Z,89.53
2018-12-23T01:17:37.768Z,89.62
2018-12-23T01:18:37.716Z,87.82
2018-12-23T01:19:37.694Z,88.39
2018-12-23T01:20:37.604Z,88.57
2018-12-23T01:21:37.549Z,88.39
2018-12-23T01:22:37.493Z,88.20
2018-12-23T01:23:37.470Z,87.62
2018-12-23T01:24:37.382Z,86.68
2018-12-23T01:25:37.356Z,87.53
2018-12-23T01:26:37.268Z,88.20
2018-12-23T01:27:37.219Z,87.82
2018-12-23T01:28:37.197Z,86.87
2018-12-23T01:29:37.103Z,87.15
2018-12-23T01:30:37.081Z,87.43
2018-12-23T01:31:36.997Z,87.24
2018-12-23T01:32:36.939Z,87.15
2018-12-23T01:33:36.881Z,86.77
2018-12-23T01:34:37.243Z,86.20
2018-12-23T01:35:37.238Z,86.96
2018-12-23T01:36:36.713Z,85.78
2018-12-23T01:37:36.657Z,84.87
2018-12-23T01:38:36.604Z,85.72
2018-12-23T01:39:36.549Z,85.35
2018-12-23T01:40:36.532Z,85.44
2018-12-23T01:41:36.437Z,85.16
2018-12-23T01:42:36.383Z,84.87
2018-12-23T01:43:36.324Z,84.40
2018-12-23T01:44:36.280Z,85.82
2018-12-23T01:45:36.254Z,86.20
2018-12-23T01:46:36.159Z,85.63
2018-12-23T01:47:36.103Z,84.49
2018-12-23T01:48:36.044Z,84.59
2018-12-23T01:49:35.992Z,85.25
2018-12-23T01:50:35.971Z,85.35
2018-12-23T01:51:35.881Z,85.16
2018-12-23T01:52:35.831Z,85.16
2018-12-23T01:53:35.799Z,85.25
2018-12-23T01:54:35.716Z,85.44
2018-12-23T01:55:35.659Z,85.35
2018-12-23T01:56:35.603Z,85.91
2018-12-23T01:57:35.581Z,87.72
2018-12-23T01:58:35.493Z,86.68
2018-12-23T01:59:35.474Z,86.77
2018-12-23T02:00:35.378Z,87.62
2018-12-23T02:01:35.324Z,86.49
2018-12-23T02:02:35.308Z,87.15
2018-12-23T02:03:35.222Z,87.15
2018-12-23T02:04:35.155Z,87.24
2018-12-23T02:05:35.140Z,87.05
2018-12-23T02:06:35.050Z,87.43
2018-12-23T02:07:34.991Z,87.58
2018-12-23T02:08:34.940Z,87.62
2018-12-23T02:09:34.881Z,87.11
2018-12-23T02:10:34.847Z,87.58
2018-12-23T02:11:34.768Z,86.91
2018-12-23T02:12:34.762Z,88.15
2018-12-23T02:13:34.659Z,87.68
2018-12-23T02:14:34.603Z,88.43
2018-12-23T02:15:34.543Z,87.39
2018-12-23T02:16:34.493Z,87.77
2018-12-23T02:17:34.469Z,87.39
2018-12-23T02:18:34.378Z,86.82
2018-12-23T02:19:34.319Z,87.30
2018-12-23T02:20:34.265Z,87.30
2018-12-23T02:21:34.246Z,86.16
2018-12-23T02:22:34.154Z,86.35
2018-12-23T02:23:34.105Z,86.54
2018-12-23T02:24:34.043Z,86.44
2018-12-23T02:25:34.019Z,86.72
2018-12-23T02:26:33.930Z,86.35
2018-12-23T02:27:33.876Z,86.82
2018-12-23T02:28:33.824Z,86.25
2018-12-23T02:29:33.767Z,86.16
2018-12-23T02:30:33.745Z,86.16
2018-12-23T02:31:33.649Z,85.59
2018-12-23T02:32:33.599Z,85.78
2018-12-23T02:33:33.541Z,85.49
2018-12-23T02:34:33.519Z,85.68
2018-12-23T02:35:33.469Z,85.87
2018-12-23T02:36:33.412Z,85.87
2018-12-23T02:37:33.317Z,85.49
2018-12-23T02:38:33.261Z,85.97
2018-12-23T02:39:33.209Z,86.07
2018-12-23T02:40:33.150Z,86.16
2018-12-23T02:41:33.124Z,85.87
2018-12-23T02:42:33.038Z,85.68
2018-12-23T02:43:32.985Z,86.35
2018-12-23T02:44:32.926Z,86.44
2018-12-23T02:45:32.874Z,86.16
2018-12-23T02:46:32.862Z,85.11
2018-12-23T02:47:32.764Z,84.17
2018-12-23T02:48:32.846Z,82.74
2018-12-23T02:49:32.650Z,82.55
2018-12-23T02:50:32.597Z,83.03
2018-12-23T02:51:32.570Z,83.78
2018-12-23T02:52:32.483Z,83.22
2018-12-23T02:53:32.426Z,83.40
2018-12-23T02:54:32.373Z,84.17
2018-12-23T02:55:32.345Z,82.36
2018-12-23T02:56:32.260Z,82.65
2018-12-23T02:57:32.202Z,82.08
2018-12-23T02:58:32.180Z,82.46
2018-12-23T02:59:32.101Z,83.03
2018-12-23T03:00:32.036Z,82.84
2018-12-23T03:01:31.980Z,82.17
2018-12-23T03:02:31.929Z,81.88
2018-12-23T03:03:31.899Z,82.74
2018-12-23T03:04:31.840Z,82.46
2018-12-23T03:05:31.789Z,81.88
2018-12-23T03:06:31.701Z,81.79
2018-12-23T03:07:31.649Z,81.04
2018-12-23T03:08:31.620Z,81.04
2018-12-23T03:09:31.537Z,81.04
2018-12-23T03:10:31.478Z,81.60
2018-12-23T03:11:31.452Z,79.80
2018-12-23T03:12:31.379Z,80.75
2018-12-23T03:13:31.312Z,80.75
2018-12-23T03:14:31.256Z,81.32
2018-12-23T03:15:31.235Z,80.56
2018-12-23T03:16:31.174Z,81.32
2018-12-23T03:17:31.091Z,81.04
2018-12-23T03:18:31.037Z,81.79
2018-12-23T03:19:30.976Z,81.98
2018-12-23T03:20:30.954Z,82.17
2018-12-23T03:21:30.868Z,81.41
2018-12-23T03:22:30.812Z,82.36
2018-12-23T03:23:30.786Z,83.59
2018-12-23T03:24:30.696Z,83.22
2018-12-23T03:25:30.652Z,83.88
2018-12-23T03:26:30.621Z,84.83
2018-12-23T03:27:30.533Z,85.30
2018-12-23T03:28:30.506Z,84.55
2018-12-23T03:29:30.421Z,84.83
2018-12-23T03:30:30.396Z,85.49
2018-12-23T03:31:30.430Z,85.21
2018-12-23T03:32:30.273Z,85.11
2018-12-23T03:33:30.200Z,86.16
2018-12-23T03:34:30.142Z,86.25
2018-12-23T03:35:30.115Z,90.62
2018-12-23T03:36:30.038Z,89.48
2018-12-23T03:37:29.972Z,89.29
2018-12-23T03:38:29.920Z,89.33
2018-12-23T03:39:29.892Z,88.29
2018-12-23T03:40:29.808Z,88.20
2018-12-23T03:41:29.749Z,89.39
2018-12-23T03:42:29.695Z,88.62
2018-12-23T03:43:29.683Z,88.43
2018-12-23T03:44:29.580Z,88.72
2018-12-23T03:45:29.527Z,89.10
2018-12-23T03:46:29.468Z,88.67
2018-12-23T03:47:29.412Z,88.81
2018-12-23T03:48:29.409Z,88.24
2018-12-23T03:49:29.302Z,88.34
2018-12-23T03:50:29.247Z,89.48
2018-12-23T03:51:29.193Z,90.33
2018-12-23T03:52:29.135Z,88.43
2018-12-23T03:53:29.109Z,88.15
2018-12-23T03:54:29.058Z,88.81
2018-12-23T03:55:28.967Z,90.05
2018-12-23T03:56:28.915Z,90.05
2018-12-23T03:57:28.861Z,89.58
2018-12-23T03:58:28.801Z,90.81
2018-12-23T03:59:28.788Z,90.52
2018-12-23T04:00:28.694Z,90.24
2018-12-23T04:01:28.652Z,91.47
2018-12-23T04:02:28.590Z,91.47
2018-12-23T04:03:28.520Z,90.05
2018-12-23T04:04:28.497Z,90.14
2018-12-23T04:05:28.411Z,89.86
2018-12-23T04:06:28.380Z,89.76
2018-12-23T04:07:28.311Z,89.62
2018-12-23T04:08:28.244Z,89.24
2018-12-23T04:09:28.191Z,89.67
2018-12-23T04:10:28.161Z,89.39
2018-12-23T04:11:28.078Z,88.67
2018-12-23T04:12:28.024Z,88.76
2018-12-23T04:13:27.969Z,87.11
2018-12-23T04:14:27.915Z,87.68
2018-12-23T04:15:27.886Z,88.06
2018-12-23T04:16:27.840Z,88.62
2018-12-23T04:17:27.739Z,86.91
2018-12-23T04:18:27.683Z,87.11
2018-12-23T04:19:27.630Z,86.72
2018-12-23T04:20:27.571Z,87.39
2018-12-23T04:21:27.557Z,86.63
2018-12-23T04:22:27.468Z,86.54
2018-12-23T04:23:27.409Z,87.11
2018-12-23T04:24:27.349Z,86.54
2018-12-23T04:25:27.301Z,86.35
2018-12-23T04:26:27.278Z,86.35
2018-12-23T04:27:27.214Z,86.44
2018-12-23T04:28:27.130Z,86.07
2018-12-23T04:29:27.070Z,86.16
2018-12-23T04:30:27.018Z,86.35
2018-12-23T04:31:26.964Z,85.78
2018-12-23T04:32:26.944Z,86.07
2018-12-23T04:33:26.853Z,85.11
2018-12-23T04:34:26.793Z,83.03
2018-12-23T04:35:26.736Z,83.03
2018-12-23T04:36:34.077Z,83.78
2018-12-23T04:37:26.661Z,83.59
2018-12-23T04:38:26.579Z,83.97
2018-12-23T04:39:26.559Z,84.36
2018-12-23T04:40:26.493Z,83.78
2018-12-23T04:41:26.403Z,83.59
2018-12-23T04:42:26.379Z,81.98
2018-12-23T04:43:26.304Z,82.65
2018-12-23T04:44:26.241Z,81.51
2018-12-23T04:45:26.182Z,82.27
2018-12-23T04:46:26.125Z,81.79
2018-12-23T04:47:26.104Z,81.88
2018-12-23T04:48:26.015Z,81.04
2018-12-23T04:49:25.958Z,81.70
2018-12-23T04:50:25.941Z,79.90
2018-12-23T04:51:25.852Z,80.18
2018-12-23T04:52:25.791Z,80.18
2018-12-23T04:53:25.736Z,80.27
2018-12-23T04:54:25.693Z,79.99
2018-12-23T04:55:25.665Z,79.71
2018-12-23T04:56:25.576Z,79.99
2018-12-23T04:57:25.511Z,80.18
2018-12-23T04:58:25.462Z,79.61
2018-12-23T04:59:25.398Z,78.95
2018-12-23T05:00:25.376Z,78.85
2018-12-23T05:01:25.288Z,78.85
2018-12-23T05:02:25.238Z,78.66
2018-12-23T05:03:25.179Z,78.75
2018-12-23T05:04:25.121Z,78.95
2018-12-23T05:05:25.111Z,78.28
2018-12-23T05:06:25.010Z,77.71
2018-12-23T05:07:24.954Z,77.62
2018-12-23T05:08:24.897Z,77.81
2018-12-23T05:09:24.851Z,78.66
2018-12-23T05:10:24.832Z,78.66
2018-12-23T05:11:24.731Z,78.38
2018-12-23T05:12:24.675Z,78.56
2018-12-23T05:13:24.620Z,78.66
2018-12-23T05:14:24.567Z,78.56
2018-12-23T05:15:24.539Z,77.81
2018-12-23T05:16:24.458Z,78.38
2018-12-23T05:17:24.398Z,77.43
2018-12-23T05:18:24.374Z,76.20
2018-12-23T05:19:24.291Z,75.34
2018-12-23T05:20:24.228Z,75.62
2018-12-23T05:21:24.174Z,76.86
2018-12-23T05:22:24.117Z,76.48
2018-12-23T05:23:24.105Z,76.86
2018-12-23T05:24:24.011Z,76.76
2018-12-23T05:25:23.950Z,76.39
2018-12-23T05:26:23.894Z,76.57
2018-12-23T05:27:23.836Z,76.39
2018-12-23T05:28:23.818Z,76.20
2018-12-23T05:29:23.731Z,76.39
2018-12-23T05:30:23.672Z,76.76
2018-12-23T05:31:23.658Z,77.14
2018-12-23T05:32:23.559Z,76.39
2018-12-23T05:33:23.505Z,76.29
2018-12-23T05:34:23.451Z,76.67
2018-12-23T05:35:23.394Z,76.86
2018-12-23T05:36:23.372Z,77.43
2018-12-23T05:37:23.279Z,77.05
2018-12-23T05:38:23.224Z,77.05
2018-12-23T05:39:23.170Z,76.29
2018-12-23T05:40:23.120Z,76.01
2018-12-23T05:41:23.087Z,76.01
2018-12-23T05:42:23.006Z,75.53
2018-12-23T05:43:22.947Z,75.15
2018-12-23T05:44:22.891Z,75.91
2018-12-23T05:45:22.865Z,75.81
2018-12-23T05:46:22.782Z,74.58
2018-12-23T05:47:22.723Z,74.49
2018-12-23T05:48:22.670Z,75.62
2018-12-23T05:49:22.652Z,74.96
2018-12-23T05:50:22.561Z,75.43
2018-12-23T05:51:22.497Z,75.24
2018-12-23T05:52:23.833Z,75.15
2018-12-23T05:53:22.397Z,76.01
2018-12-23T05:54:22.378Z,76.57
2018-12-23T05:55:22.281Z,75.72
2018-12-23T05:56:22.222Z,76.10
2018-12-23T05:57:22.163Z,74.68
2018-12-23T05:58:22.106Z,75.34
2018-12-23T05:59:22.087Z,75.05
2018-12-23T06:00:22.032Z,76.20
2018-12-23T06:01:21.943Z,76.48
2018-12-23T06:02:21.884Z,76.57
2018-12-23T06:03:21.826Z,77.14
2018-12-23T06:04:21.773Z,76.67
2018-12-23T06:05:21.749Z,76.20
2018-12-23T06:06:21.717Z,76.48
2018-12-23T06:07:21.604Z,76.39
2018-12-23T06:08:21.585Z,75.43
2018-12-23T06:09:21.491Z,75.24
2018-12-23T06:10:21.439Z,75.91
2018-12-23T06:11:21.410Z,76.01
2018-12-23T06:12:21.327Z,75.62
2018-12-23T06:13:21.279Z,76.39
2018-12-23T06:14:21.248Z,76.86
2018-12-23T06:15:21.155Z,76.67
2018-12-23T06:16:21.099Z,76.86
2018-12-23T06:17:21.045Z,75.91
2018-12-23T06:18:21.032Z,75.95
2018-12-23T06:19:20.935Z,75.91
2018-12-23T06:20:20.879Z,76.57
2018-12-23T06:21:20.829Z,76.86
2018-12-23T06:22:20.766Z,76.86
2018-12-23T06:23:20.746Z,76.80
2018-12-23T06:24:20.656Z,77.52
2018-12-23T06:25:20.600Z,77.14
2018-12-23T06:26:20.552Z,77.14
2018-12-23T06:27:20.488Z,77.62
2018-12-23T06:28:20.464Z,77.47
2018-12-23T06:29:20.377Z,76.29
2018-12-23T06:30:20.349Z,76.67
2018-12-23T06:31:20.262Z,76.67
2018-12-23T06:32:20.208Z,76.95
2018-12-23T06:33:20.187Z,76.95
2018-12-23T06:34:20.098Z,76.67
2018-12-23T06:35:20.071Z,76.01
2018-12-23T06:36:19.984Z,76.57
2018-12-23T06:37:19.934Z,76.10
2018-12-23T06:38:19.875Z,76.39
2018-12-23T06:39:19.822Z,76.10
2018-12-23T06:40:19.798Z,76.14
2018-12-23T06:41:19.748Z,76.39
2018-12-23T06:42:19.648Z,76.86
2018-12-23T06:43:19.603Z,76.39
2018-12-23T06:44:19.537Z,76.57
2018-12-23T06:45:19.488Z,77.18
2018-12-23T06:46:19.466Z,76.48
2018-12-23T06:47:19.368Z,76.04
2018-12-23T06:48:19.316Z,74.96
2018-12-23T06:49:19.260Z,74.58
2018-12-23T06:50:19.213Z,74.11
2018-12-23T06:51:19.185Z,74.20
2018-12-23T06:52:19.105Z,74.33
2018-12-23T06:53:19.039Z,75.00
2018-12-23T06:54:19.015Z,74.62
2018-12-23T06:55:18.926Z,74.81
2018-12-23T06:56:18.874Z,75.62
2018-12-23T06:57:18.825Z,74.33
2018-12-23T06:58:18.762Z,74.20
2018-12-23T06:59:18.740Z,74.30
2018-12-23T07:00:18.650Z,73.82
2018-12-23T07:01:18.590Z,74.24
2018-12-23T07:02:18.536Z,74.01
2018-12-23T07:03:18.479Z,74.05
2018-12-23T07:04:18.467Z,75.09
2018-12-23T07:05:18.376Z,75.28
2018-12-23T07:06:18.311Z,74.43
2018-12-23T07:07:18.785Z,74.24
2018-12-23T07:08:18.201Z,74.15
2018-12-23T07:09:18.174Z,74.11
2018-12-23T07:10:18.101Z,75.09
2018-12-23T07:11:18.030Z,73.96
2018-12-23T07:12:17.977Z,74.24
2018-12-23T07:13:17.927Z,73.48
2018-12-23T07:14:17.900Z,73.35
2018-12-23T07:15:17.809Z,73.72
2018-12-23T07:16:17.769Z,73.67
2018-12-23T07:17:17.701Z,73.96
2018-12-23T07:18:17.642Z,73.67
2018-12-23T07:19:17.616Z,72.81
2018-12-23T07:20:17.534Z,72.30
2018-12-23T07:21:17.586Z,73.07
2018-12-23T07:22:17.434Z,72.78
2018-12-23T07:23:17.395Z,72.91
2018-12-23T07:24:17.306Z,71.86
2018-12-23T07:25:17.249Z,72.15
2018-12-23T07:26:17.198Z,72.81
2018-12-23T07:27:17.138Z,73.00
2018-12-23T07:28:17.121Z,73.29
2018-12-23T07:29:17.055Z,72.81
2018-12-23T07:30:16.968Z,73.10
2018-12-23T07:31:16.916Z,73.10
2018-12-23T07:32:16.858Z,73.29
2018-12-23T07:33:16.833Z,72.91
2018-12-23T07:34:16.747Z,73.29
2018-12-23T07:35:16.697Z,73.48
2018-12-23T07:36:16.666Z,73.10
2018-12-23T07:37:16.580Z,72.15
2018-12-23T07:38:16.523Z,73.00
2018-12-23T07:39:16.500Z,73.10
2018-12-23T07:40:16.416Z,73.10
2018-12-23T07:41:16.356Z,73.29
2018-12-23T07:42:16.299Z,72.81
2018-12-23T07:43:16.241Z,72.72
2018-12-23T07:44:16.217Z,73.00
2018-12-23T07:45:16.132Z,72.91
2018-12-23T07:46:16.075Z,73.10
2018-12-23T07:47:16.051Z,72.91
2018-12-23T07:48:15.964Z,72.72
2018-12-23T07:49:15.915Z,73.19
2018-12-23T07:50:15.858Z,72.44
2018-12-23T07:51:15.827Z,71.77
2018-12-23T07:52:15.742Z,71.01
2018-12-23T07:53:15.686Z,71.77
2018-12-23T07:54:15.630Z,71.20
2018-12-23T07:55:15.604Z,70.15
2018-12-23T07:56:15.529Z,70.54
2018-12-23T07:57:15.460Z,70.44
2018-12-23T07:58:15.406Z,71.11
2018-12-23T07:59:15.382Z,70.54
2018-12-23T08:00:15.297Z,70.35
2018-12-23T08:01:15.238Z,70.92
2018-12-23T08:02:15.215Z,70.15
2018-12-23T08:03:15.124Z,70.06
2018-12-23T08:04:15.069Z,69.96
2018-12-23T08:05:15.014Z,69.68
2018-12-23T08:06:14.995Z,70.06
2018-12-23T08:07:14.908Z,71.01
2018-12-23T08:08:14.850Z,71.11
2018-12-23T08:09:14.793Z,70.63
2018-12-23T08:10:14.738Z,70.15
2018-12-23T08:11:14.712Z,70.63
2018-12-23T08:12:14.653Z,69.78
2018-12-23T08:13:14.570Z,69.87
2018-12-23T08:14:14.510Z,70.15
2018-12-23T08:15:14.459Z,70.15
2018-12-23T08:16:14.402Z,68.83
2018-12-23T08:17:14.374Z,69.68
2018-12-23T08:18:14.298Z,69.78
2018-12-23T08:19:14.265Z,69.21
2018-12-23T08:20:14.181Z,70.35
2018-12-23T08:21:14.156Z,68.92
2018-12-23T08:22:14.064Z,69.96
2018-12-23T08:23:14.007Z,70.25
2018-12-23T08:24:13.955Z,69.78
2018-12-23T08:25:13.897Z,70.35
2018-12-23T08:26:13.882Z,69.59
2018-12-23T08:27:13.785Z,70.06
2018-12-23T08:28:13.734Z,70.63
2018-12-23T08:29:13.677Z,70.35
2018-12-23T08:30:13.617Z,70.15
2018-12-23T08:31:13.602Z,70.06
2018-12-23T08:32:13.506Z,70.44
2018-12-23T08:33:13.455Z,71.11
2018-12-23T08:34:13.396Z,71.01
2018-12-23T08:35:13.339Z,71.01
2018-12-23T08:36:13.315Z,71.11
2018-12-23T08:37:13.235Z,70.92
2018-12-23T08:38:13.174Z,71.20
2018-12-23T08:39:13.115Z,70.25
2018-12-23T08:40:13.093Z,71.11
2018-12-23T08:41:13.009Z,70.82
2018-12-23T08:42:12.949Z,71.77
2018-12-23T08:43:12.895Z,71.20
2018-12-23T08:44:12.843Z,70.63
2018-12-23T08:45:12.836Z,71.01
2018-12-23T08:46:12.842Z,71.30
2018-12-23T08:47:12.712Z,71.67
2018-12-23T08:48:12.651Z,71.39
2018-12-23T08:49:12.591Z,72.91
2018-12-23T08:50:12.521Z,71.96
2018-12-23T08:51:12.446Z,71.67
2018-12-23T08:52:12.399Z,71.48
2018-12-23T08:53:12.371Z,72.06
2018-12-23T08:54:12.281Z,72.91
2018-12-23T08:55:12.226Z,72.81
2018-12-23T08:56:12.194Z,72.81
2018-12-23T08:57:12.115Z,73.29
2018-12-23T08:58:12.103Z,73.48
2018-12-23T08:59:12.007Z,73.76
2018-12-23T09:00:11.962Z,74.05
2018-12-23T09:01:11.891Z,75.47
2018-12-23T09:02:11.840Z,75.19
2018-12-23T09:03:18.802Z,74.94
2018-12-23T09:04:11.739Z,75.00
2018-12-23T09:05:11.668Z,74.47
2018-12-23T09:06:11.643Z,74.66
2018-12-23T09:07:11.564Z,75.67
2018-12-23T09:08:11.534Z,75.13
2018-12-23T09:09:11.446Z,75.09
2018-12-23T09:10:11.393Z,74.71
2018-12-23T09:11:11.335Z,76.32
2018-12-23T09:12:11.281Z,76.27
2018-12-23T09:13:11.250Z,76.08
2018-12-23T09:14:11.190Z,75.89
2018-12-23T09:15:11.118Z,75.60
2018-12-23T09:16:11.057Z,74.85
2018-12-23T09:17:11.009Z,75.60
2018-12-23T09:18:19.163Z,75.79
2018-12-23T09:19:10.888Z,75.60
2018-12-23T09:20:10.849Z,75.89
2018-12-23T09:21:10.781Z,75.89
2018-12-23T09:22:10.728Z,75.70
2018-12-23T09:23:10.714Z,74.94
2018-12-23T09:24:10.610Z,74.85
2018-12-23T09:25:10.557Z,74.75
2018-12-23T09:26:11.214Z,75.70
2018-12-23T09:27:10.441Z,76.84
2018-12-23T09:28:10.429Z,78.45
2018-12-23T09:29:10.333Z,77.70
2018-12-23T09:30:10.280Z,76.75
2018-12-23T09:31:10.223Z,77.89
2018-12-23T09:32:10.170Z,76.84
2018-12-23T09:33:10.156Z,76.75
2018-12-23T09:34:10.058Z,77.70
2018-12-23T09:35:10.008Z,77.60
2018-12-23T09:36:09.945Z,77.41
2018-12-23T09:37:09.897Z,77.41
2018-12-23T09:38:09.878Z,75.51
2018-12-23T09:39:09.781Z,76.18
2018-12-23T09:40:09.728Z,76.18
2018-12-23T09:41:09.669Z,76.75
2018-12-23T09:42:09.613Z,75.89
2018-12-23T09:43:09.596Z,75.23
2018-12-23T09:44:09.507Z,75.51
2018-12-23T09:45:09.489Z,76.46
2018-12-23T09:46:09.395Z,76.46
2018-12-23T09:47:09.335Z,76.08
2018-12-23T09:48:09.282Z,75.42
2018-12-23T09:49:09.225Z,75.99
2018-12-23T09:50:09.211Z,75.99
2018-12-23T09:51:09.114Z,75.79
2018-12-23T09:52:09.092Z,75.70
2018-12-23T09:53:09.042Z,75.42
2018-12-23T09:54:08.950Z,76.08
2018-12-23T09:55:08.894Z,76.93
2018-12-23T09:56:08.837Z,75.51
2018-12-23T09:57:08.828Z,74.94
2018-12-23T09:58:08.735Z,75.23
2018-12-23T09:59:08.669Z,74.66
2018-12-23T10:00:08.617Z,73.99
2018-12-23T10:01:08.560Z,74.56
2018-12-23T10:02:08.554Z,74.94
2018-12-23T10:03:08.457Z,74.37
2018-12-23T10:04:08.405Z,74.37
2018-12-23T10:05:08.343Z,74.56
2018-12-23T10:06:08.316Z,73.61
2018-12-23T10:07:08.275Z,74.66
2018-12-23T10:08:10.235Z,75.70
2018-12-23T10:09:08.123Z,75.51
2018-12-23T10:10:08.067Z,75.23
2018-12-23T10:11:08.014Z,74.85
2018-12-23T10:12:07.993Z,75.23
2018-12-23T10:13:07.899Z,76.18
2018-12-23T10:14:07.847Z,74.75
2018-12-23T10:15:07.786Z,75.89
2018-12-23T10:16:07.734Z,74.37
2018-12-23T10:17:07.712Z,76.93
2018-12-23T10:18:07.645Z,75.99
2018-12-23T10:19:07.570Z,75.42
2018-12-23T10:20:07.512Z,76.27
2018-12-23T10:21:07.494Z,76.46
2018-12-23T10:22:07.404Z,76.93
2018-12-23T10:23:07.348Z,76.84
2018-12-23T10:24:07.295Z,78.93
2018-12-23T10:25:07.267Z,79.03
2018-12-23T10:26:07.193Z,78.36
2018-12-23T10:27:07.126Z,80.64
2018-12-23T10:28:07.075Z,80.26
2018-12-23T10:29:07.051Z,79.31
2018-12-23T10:30:06.965Z,78.64
2018-12-23T10:31:06.907Z,77.31
2018-12-23T10:32:06.853Z,78.27
2018-12-23T10:33:06.794Z,77.70
2018-12-23T10:34:06.804Z,79.03
2018-12-23T10:35:06.684Z,79.03
2018-12-23T10:36:06.633Z,78.45
2018-12-23T10:37:06.581Z,78.74
2018-12-23T10:38:06.521Z,78.17
2018-12-23T10:39:06.494Z,78.17
2018-12-23T10:40:06.408Z,77.89
2018-12-23T10:41:06.381Z,78.27
2018-12-23T10:42:06.300Z,77.60
2018-12-23T10:43:06.250Z,78.93
2018-12-23T10:44:06.190Z,78.45
2018-12-23T10:45:06.136Z,79.79
2018-12-23T10:46:06.107Z,80.26
2018-12-23T10:47:06.023Z,78.83
2018-12-23T10:48:05.969Z,78.83
2018-12-23T10:49:05.910Z,79.03
2018-12-23T10:50:05.855Z,81.68
2018-12-23T10:51:05.842Z,80.93
2018-12-23T10:52:05.744Z,81.97
2018-12-23T10:53:05.693Z,82.45
2018-12-23T10:54:05.640Z,81.40
2018-12-23T10:55:05.580Z,83.34
2018-12-23T10:56:05.555Z,85.34
2018-12-23T10:57:05.467Z,85.30
2018-12-23T10:58:05.419Z,84.48
2018-12-23T10:59:05.397Z,83.53
2018-12-23T11:00:05.306Z,84.53
2018-12-23T11:01:05.255Z,84.39
2018-12-23T11:02:13.411Z,82.68
2018-12-23T11:03:05.171Z,81.73
2018-12-23T11:04:05.092Z,82.68
2018-12-23T11:05:05.031Z,84.77
2018-12-23T11:06:04.975Z,83.62
2018-12-23T11:07:04.918Z,83.25
2018-12-23T11:08:04.899Z,83.15
2018-12-23T11:09:04.814Z,83.15
2018-12-23T11:10:04.756Z,85.24
2018-12-23T11:11:04.703Z,85.43
2018-12-23T11:12:04.645Z,84.48
2018-12-23T11:13:04.622Z,86.29
2018-12-23T11:14:04.534Z,84.58
2018-12-23T11:15:04.483Z,83.82
2018-12-23T11:16:04.425Z,83.87
2018-12-23T11:17:04.373Z,84.34
2018-12-23T11:18:04.344Z,85.20
2018-12-23T11:19:04.258Z,84.72
2018-12-23T11:20:04.204Z,82.64
2018-12-23T11:21:04.158Z,82.45
2018-12-23T11:22:04.130Z,81.02
2018-12-23T11:23:04.070Z,83.01
2018-12-23T11:24:03.991Z,82.92
2018-12-23T11:25:03.930Z,82.07
2018-12-23T11:26:03.882Z,81.21
2018-12-23T11:27:03.825Z,84.06
2018-12-23T11:28:03.801Z,83.39
2018-12-23T11:29:03.708Z,83.20
2018-12-23T11:30:03.701Z,85.01
2018-12-23T11:31:03.608Z,84.53
2018-12-23T11:32:03.544Z,83.59
2018-12-23T11:33:03.496Z,84.53
2018-12-23T11:34:03.433Z,81.68
2018-12-23T11:35:03.415Z,84.06
2018-12-23T11:36:03.327Z,84.44
2018-12-23T11:37:03.270Z,84.72
2018-12-23T11:38:03.221Z,84.44
2018-12-23T11:39:03.189Z,84.34
2018-12-23T11:40:03.103Z,83.11
2018-12-23T11:41:03.050Z,82.35
2018-12-23T11:42:02.997Z,83.78
2018-12-23T11:43:02.986Z,83.68
2018-12-23T11:44:02.884Z,83.20
2018-12-23T11:45:02.833Z,83.25
2018-12-23T11:46:02.778Z,84.16
2018-12-23T11:47:02.724Z,83.97
2018-12-23T11:48:02.697Z,86.15
2018-12-23T11:49:02.611Z,85.96
2018-12-23T11:50:02.558Z,86.72
2018-12-23T11:51:02.497Z,87.38
2018-12-23T11:52:02.444Z,87.19
2018-12-23T11:53:02.430Z,87.57
2018-12-23T11:54:02.344Z,87.48
2018-12-23T11:55:02.281Z,86.43
2018-12-23T11:56:02.224Z,87.57
2018-12-23T11:57:02.171Z,87.01
2018-12-23T11:58:02.148Z,85.77
2018-12-23T11:59:02.061Z,85.72
2018-12-23T12:00:02.040Z,85.62
2018-12-23T12:01:01.948Z,86.38
2018-12-23T12:02:01.894Z,87.14
2018-12-23T12:03:01.873Z,86.29
2018-12-23T12:04:01.789Z,90.85
2018-12-23T12:05:01.795Z,88.67
2018-12-23T12:06:01.702Z,86.95
2018-12-23T12:07:01.619Z,85.62
2018-12-23T12:08:01.566Z,86.43
2018-12-23T12:09:06.946Z,86.57
2018-12-23T12:10:01.498Z,86.47
2018-12-23T12:11:01.400Z,86.10
2018-12-23T12:12:01.343Z,85.91
2018-12-23T12:13:01.290Z,86.47
2018-12-23T12:14:01.238Z,86.34
2018-12-23T12:15:01.229Z,84.86
2018-12-23T12:16:01.133Z,84.67
2018-12-23T12:17:01.112Z,85.77
2018-12-23T12:18:01.049Z,86.43
2018-12-23T12:19:00.960Z,85.30
2018-12-23T12:20:00.906Z,84.91
2018-12-23T12:21:00.857Z,84.48
2018-12-23T12:22:00.845Z,84.91
2018-12-23T12:23:00.748Z,84.48
2018-12-23T12:24:00.736Z,83.91
2018-12-23T12:25:00.678Z,84.53
2018-12-23T12:26:00.758Z,85.62
2018-12-23T12:27:00.553Z,88.95
2018-12-23T12:28:00.505Z,87.34
2018-12-23T12:29:00.415Z,86.19
2018-12-23T12:30:00.361Z,85.62
2018-12-23T12:31:00.300Z,85.53
2018-12-23T12:32:00.248Z,85.62
2018-12-23T12:33:00.241Z,84.86
2018-12-23T12:34:00.142Z,86.00
2018-12-23T12:35:00.151Z,87.14
2018-12-23T12:36:00.048Z,86.76
2018-12-23T12:37:00.024Z,86.82
2018-12-23T12:37:59.923Z,86.10
2018-12-23T12:38:59.873Z,86.19
2018-12-23T12:39:59.831Z,85.72
2018-12-23T12:40:59.758Z,85.77
2018-12-23T12:41:59.771Z,85.91
2018-12-23T12:42:59.688Z,87.62
2018-12-23T12:43:59.592Z,86.95
2018-12-23T12:44:59.535Z,86.95
2018-12-23T12:46:00.576Z,86.47
2018-12-23T12:46:59.443Z,85.53
2018-12-23T12:47:59.411Z,84.77
2018-12-23T12:48:59.319Z,85.53
2018-12-23T12:49:59.340Z,85.91
2018-12-23T12:50:59.242Z,87.24
2018-12-23T12:51:59.214Z,86.29